Keresley, United Kingdom
Current Conditions -  °F | °C
As of 1:20 PM on Wednesday 28 Jan 2015 (Local Time) from EGBE Reporting Station
Scattered Clouds Scattered Clouds  
Wind Chill: 36°   Ceiling: Unl
Heat Index: 45°   Visibility: 6mi
Dew Point: 28°   Wind: 24mph
Humidity: 53%   Direction: 290°WNW
Pressure: 29.53"   Gusts: 45mph
Location:  52.45°N, 1.53°W
Report Text: EGBE 281320Z 29021G39KT 9999 SCT037 07/M02 Q1000
Loading
Personal Weather Stations






























Interactive Weather Map New forecast layout! Learn more

10-Day Weather Forecast

Advertisements
Track Severe Weather on mobile